Time;durP1;ratioP1;P1;durP2;ratioP2;P2;SDS_P1;SDS_P2;PMS_P1;PMS_P2;Temp;Humidity;BMP_temperature;BMP_pressure;BME280_temperature;BME280_humidity;BME280_pressure;Samples;Min_cycle;Max_cycle;Signal;HPM_P1;HPM_P2
2021/05/30 00:00:12;;;;;;;;;;;21.80;44.20;;;;;;460822;257;1071;-45
2021/05/30 00:02:13;;;;;;;;;;;21.80;44.10;;;;;;461839;257;1339;-45
2021/05/30 00:04:14;;;;;;;;;;;21.80;44.10;;;;;;460927;256;2153;-44
2021/05/30 00:06:15;;;;;;;;;;;21.80;44.20;;;;;;460768;257;1325;-45
2021/05/30 00:08:18;;;;;;;;;;;21.80;44.10;;;;;;463231;257;1277;-45
2021/05/30 00:10:18;;;;;;;;;;;21.80;44.20;;;;;;463128;257;2315;-45
2021/05/30 00:12:19;;;;;;;;;;;21.80;44.20;;;;;;463370;257;1193;-45
2021/05/30 00:14:21;;;;;;;;;;;21.80;44.00;;;;;;463197;255;1028;-45
2021/05/30 00:16:22;;;;;;;;;;;21.80;44.00;;;;;;460838;257;1182;-45
2021/05/30 00:18:23;;;;;;;;;;;21.80;44.00;;;;;;463196;257;1240;-45
2021/05/30 00:20:24;;;;;;;;;;;21.90;44.00;;;;;;463150;255;1143;-45
2021/05/30 00:22:26;;;;;;;;;;;21.90;44.00;;;;;;463170;256;1122;-45
2021/05/30 00:24:27;;;;;;;;;;;21.90;44.00;;;;;;460494;257;2199;-45
2021/05/30 00:26:28;;;;;;;;;;;21.90;44.00;;;;;;463095;257;1235;-44
2021/05/30 00:28:29;;;;;;;;;;;21.90;44.00;;;;;;463143;256;1322;-45
2021/05/30 00:30:31;;;;;;;;;;;21.90;44.00;;;;;;460495;257;1096;-45
2021/05/30 00:32:32;;;;;;;;;;;21.90;44.00;;;;;;463274;257;1127;-45
2021/05/30 00:34:33;;;;;;;;;;;21.90;44.00;;;;;;463575;256;1096;-45
2021/05/30 00:36:35;;;;;;;;;;;21.90;43.90;;;;;;463549;257;1348;-45
2021/05/30 00:38:36;;;;;;;;;;;22.00;44.00;;;;;;460776;257;1078;-45
2021/05/30 00:40:37;;;;;;;;;;;21.90;44.10;;;;;;463617;257;1232;-45
2021/05/30 00:42:38;;;;;;;;;;;21.90;43.90;;;;;;463264;256;1171;-45
2021/05/30 00:44:40;;;;;;;;;;;21.60;44.50;;;;;;463196;255;2203;-44
2021/05/30 00:46:41;;;;;;;;;;;21.10;45.80;;;;;;460668;257;1151;-45
2021/05/30 00:48:42;;;;;;;;;;;20.60;47.00;;;;;;460539;259;1185;-45
2021/05/30 00:50:43;;;;;;;;;;;20.20;47.80;;;;;;463151;257;1379;-44
2021/05/30 00:52:45;;;;;;;;;;;20.00;48.30;;;;;;463100;256;1277;-44
2021/05/30 00:54:46;;;;;;;;;;;19.80;48.80;;;;;;463138;256;1128;-44
2021/05/30 00:56:47;;;;;;;;;;;19.70;49.20;;;;;;463196;255;1349;-44
2021/05/30 00:58:49;;;;;;;;;;;19.60;49.40;;;;;;463674;255;1118;-44
2021/05/30 01:00:50;;;;;;;;;;;19.60;49.60;;;;;;463211;256;1372;-44
2021/05/30 01:02:51;;;;;;;;;;;19.50;49.80;;;;;;460561;257;1226;-44
2021/05/30 01:04:53;;;;;;;;;;;19.40;50.10;;;;;;463626;257;2198;-44
2021/05/30 01:06:56;;;;;;;;;;;19.30;50.30;;;;;;460835;257;1330;-44
2021/05/30 01:08:55;;;;;;;;;;;19.30;50.40;;;;;;460612;258;2255;-44
2021/05/30 01:10:56;;;;;;;;;;;19.20;50.50;;;;;;463158;257;1374;-44
2021/05/30 01:12:58;;;;;;;;;;;19.20;50.60;;;;;;463151;256;1266;-44
2021/05/30 01:14:59;;;;;;;;;;;19.10;50.70;;;;;;463180;256;1073;-44
2021/05/30 01:17:00;;;;;;;;;;;19.10;50.80;;;;;;463128;255;1343;-44
2021/05/30 01:19:01;;;;;;;;;;;19.10;50.80;;;;;;460579;257;1199;-44
2021/05/30 01:21:03;;;;;;;;;;;19.10;51.00;;;;;;460604;258;1160;-44
2021/05/30 01:23:04;;;;;;;;;;;19.00;51.00;;;;;;463625;257;1196;-44
2021/05/30 01:25:05;;;;;;;;;;;18.90;51.10;;;;;;463595;255;2207;-44
2021/05/30 01:27:07;;;;;;;;;;;18.90;51.10;;;;;;463611;255;1078;-44
2021/05/30 01:29:08;;;;;;;;;;;18.90;51.10;;;;;;461052;257;1057;-44
2021/05/30 01:31:09;;;;;;;;;;;19.00;51.20;;;;;;463279;257;1265;-44
2021/05/30 01:33:10;;;;;;;;;;;18.90;51.20;;;;;;460810;257;1241;-44
2021/05/30 01:35:12;;;;;;;;;;;18.80;51.20;;;;;;463088;257;1065;-44
2021/05/30 01:37:13;;;;;;;;;;;18.80;51.40;;;;;;463179;255;1297;-44
2021/05/30 01:39:14;;;;;;;;;;;18.80;51.40;;;;;;460753;257;1074;-44
2021/05/30 01:41:15;;;;;;;;;;;18.80;51.50;;;;;;462253;256;1120;-44
2021/05/30 01:43:17;;;;;;;;;;;18.70;51.50;;;;;;461817;256;2191;-45
2021/05/30 01:45:18;;;;;;;;;;;18.70;51.50;;;;;;460675;256;1089;-44
2021/05/30 01:47:19;;;;;;;;;;;18.70;51.60;;;;;;462022;257;1212;-44
2021/05/30 01:49:21;;;;;;;;;;;18.70;51.60;;;;;;462007;256;1209;-44
2021/05/30 01:51:22;;;;;;;;;;;18.70;51.60;;;;;;461848;256;1248;-44
2021/05/30 01:53:30;;;;;;;;;;;18.60;51.70;;;;;;460883;256;1089;-44
2021/05/30 01:55:28;;;;;;;;;;;18.60;51.70;;;;;;461702;257;2394;-44
2021/05/30 01:57:26;;;;;;;;;;;18.60;51.80;;;;;;467814;254;2370;-44
2021/05/30 01:59:28;;;;;;;;;;;18.60;51.70;;;;;;460631;259;1049;-44
2021/05/30 02:01:29;;;;;;;;;;;18.60;51.80;;;;;;460568;258;1281;-44
2021/05/30 02:03:30;;;;;;;;;;;18.60;51.80;;;;;;460404;258;2177;-44
2021/05/30 02:05:32;;;;;;;;;;;18.60;51.80;;;;;;460089;259;1227;-44
2021/05/30 02:07:33;;;;;;;;;;;18.50;51.80;;;;;;460242;258;1234;-45
2021/05/30 02:09:34;;;;;;;;;;;18.60;51.80;;;;;;461994;257;1265;-44
2021/05/30 02:11:36;;;;;;;;;;;18.50;51.70;;;;;;460081;257;2305;-44
2021/05/30 02:13:37;;;;;;;;;;;18.50;51.80;;;;;;460521;257;1128;-44
2021/05/30 02:15:38;;;;;;;;;;;18.50;51.80;;;;;;468173;254;1155;-44
2021/05/30 02:17:40;;;;;;;;;;;18.50;51.70;;;;;;461580;257;1228;-44
2021/05/30 02:19:41;;;;;;;;;;;18.40;51.80;;;;;;461253;258;1209;-44
2021/05/30 02:21:42;;;;;;;;;;;18.50;51.90;;;;;;461212;258;1221;-44
2021/05/30 02:23:43;;;;;;;;;;;18.40;51.90;;;;;;461155;258;2208;-44
2021/05/30 02:25:45;;;;;;;;;;;18.60;51.50;;;;;;461571;258;1068;-45
2021/05/30 02:27:46;;;;;;;;;;;19.10;50.40;;;;;;461174;258;1207;-45
2021/05/30 02:29:47;;;;;;;;;;;19.50;49.30;;;;;;461158;258;1094;-45
2021/05/30 02:31:48;;;;;;;;;;;19.70;48.50;;;;;;461024;258;1107;-45
2021/05/30 02:33:50;;;;;;;;;;;20.00;48.00;;;;;;461201;258;1142;-44
2021/05/30 02:35:51;;;;;;;;;;;20.20;47.50;;;;;;461274;258;1139;-44
2021/05/30 02:37:52;;;;;;;;;;;20.30;47.10;;;;;;461512;258;1088;-44
2021/05/30 02:39:54;;;;;;;;;;;20.40;46.90;;;;;;461241;258;1155;-45
2021/05/30 02:41:55;;;;;;;;;;;20.40;46.70;;;;;;461581;258;1178;-44
2021/05/30 02:43:56;;;;;;;;;;;20.50;46.60;;;;;;461590;258;2195;-45
2021/05/30 02:45:57;;;;;;;;;;;20.60;46.40;;;;;;461423;258;1267;-45
2021/05/30 02:47:59;;;;;;;;;;;20.60;46.30;;;;;;461602;258;1203;-45
2021/05/30 02:50:00;;;;;;;;;;;20.60;46.10;;;;;;461262;258;1190;-44
2021/05/30 02:52:01;;;;;;;;;;;20.70;46.00;;;;;;461325;258;1287;-44
2021/05/30 02:54:02;;;;;;;;;;;20.80;45.90;;;;;;461250;258;1233;-45
2021/05/30 02:56:04;;;;;;;;;;;20.80;45.90;;;;;;461482;258;1419;-45
2021/05/30 02:58:05;;;;;;;;;;;20.80;45.80;;;;;;461466;258;1162;-45
2021/05/30 03:00:06;;;;;;;;;;;20.90;45.70;;;;;;461110;258;1064;-44
2021/05/30 03:02:08;;;;;;;;;;;20.90;45.70;;;;;;461058;258;1358;-45
2021/05/30 03:04:09;;;;;;;;;;;20.90;45.60;;;;;;461053;258;2211;-45
2021/05/30 03:06:10;;;;;;;;;;;21.00;45.60;;;;;;461103;258;1100;-45
2021/05/30 03:08:12;;;;;;;;;;;21.00;45.50;;;;;;461234;258;1244;-45
2021/05/30 03:10:13;;;;;;;;;;;21.00;45.40;;;;;;461602;258;1126;-45
2021/05/30 03:12:16;;;;;;;;;;;21.10;45.40;;;;;;461168;258;1048;-45
2021/05/30 03:14:15;;;;;;;;;;;21.10;45.30;;;;;;461487;258;1355;-45
2021/05/30 03:16:17;;;;;;;;;;;21.10;45.20;;;;;;461483;258;1112;-44
2021/05/30 03:18:18;;;;;;;;;;;21.10;45.20;;;;;;461529;258;1105;-45
2021/05/30 03:20:19;;;;;;;;;;;21.20;45.20;;;;;;461183;258;1199;-45
2021/05/30 03:22:21;;;;;;;;;;;21.20;45.10;;;;;;461083;258;1129;-45
2021/05/30 03:24:22;;;;;;;;;;;21.20;45.10;;;;;;461476;258;2212;-44
2021/05/30 03:26:23;;;;;;;;;;;21.20;45.00;;;;;;461279;258;1204;-44
2021/05/30 03:28:24;;;;;;;;;;;21.20;45.00;;;;;;461184;258;1067;-44
2021/05/30 03:30:26;;;;;;;;;;;21.30;45.00;;;;;;461183;258;1148;-45
2021/05/30 03:32:27;;;;;;;;;;;21.30;44.90;;;;;;461561;258;1169;-45
2021/05/30 03:34:29;;;;;;;;;;;21.30;44.90;;;;;;461493;258;1190;-45
2021/05/30 03:36:31;;;;;;;;;;;21.30;44.90;;;;;;461591;258;1375;-44
2021/05/30 03:38:32;;;;;;;;;;;21.30;44.80;;;;;;461164;258;1864;-45
2021/05/30 03:40:37;;;;;;;;;;;21.40;44.80;;;;;;461134;258;2170;-45
2021/05/30 03:42:36;;;;;;;;;;;21.40;44.80;;;;;;461295;258;2181;-45
2021/05/30 03:44:35;;;;;;;;;;;21.40;44.70;;;;;;461010;258;2216;-44
2021/05/30 03:46:36;;;;;;;;;;;21.40;44.60;;;;;;461107;258;1369;-45
2021/05/30 03:48:37;;;;;;;;;;;21.40;44.60;;;;;;461530;258;1104;-45
2021/05/30 03:50:39;;;;;;;;;;;21.50;44.60;;;;;;461183;258;1309;-45
2021/05/30 03:52:40;;;;;;;;;;;21.50;44.50;;;;;;461016;258;1239;-44
2021/05/30 03:54:41;;;;;;;;;;;21.50;44.50;;;;;;461068;258;1060;-44
2021/05/30 03:56:43;;;;;;;;;;;21.50;44.50;;;;;;461033;258;1229;-45
2021/05/30 03:58:44;;;;;;;;;;;21.50;44.50;;;;;;461552;258;1069;-45
2021/05/30 04:00:45;;;;;;;;;;;21.50;44.40;;;;;;461433;258;1113;-45
2021/05/30 04:02:47;;;;;;;;;;;21.60;44.50;;;;;;461058;258;1656;-45
2021/05/30 04:04:48;;;;;;;;;;;21.60;44.40;;;;;;461132;258;2189;-45
2021/05/30 04:06:49;;;;;;;;;;;21.60;44.40;;;;;;461105;258;2324;-45
2021/05/30 04:08:50;;;;;;;;;;;21.60;44.20;;;;;;461199;258;1612;-45
2021/05/30 04:10:52;;;;;;;;;;;21.60;44.30;;;;;;461153;258;1921;-45
2021/05/30 04:12:53;;;;;;;;;;;21.60;44.30;;;;;;461139;258;1165;-45
2021/05/30 04:14:54;;;;;;;;;;;21.70;44.30;;;;;;461497;258;1121;-45
2021/05/30 04:16:55;;;;;;;;;;;21.60;44.20;;;;;;461129;258;1690;-45
2021/05/30 04:18:57;;;;;;;;;;;21.70;44.20;;;;;;461126;258;1115;-45
2021/05/30 04:20:58;;;;;;;;;;;21.70;44.20;;;;;;461017;258;1329;-44
2021/05/30 04:22:59;;;;;;;;;;;21.70;44.10;;;;;;461059;258;1541;-45
2021/05/30 04:25:01;;;;;;;;;;;21.70;44.20;;;;;;461553;258;2168;-45
2021/05/30 04:27:02;;;;;;;;;;;21.70;44.20;;;;;;461033;258;1295;-45
2021/05/30 04:29:04;;;;;;;;;;;21.70;44.20;;;;;;461248;258;1042;-45
2021/05/30 04:31:04;;;;;;;;;;;21.80;44.20;;;;;;461070;258;2447;-45
2021/05/30 04:33:06;;;;;;;;;;;21.80;44.10;;;;;;461214;258;1169;-45
2021/05/30 04:35:07;;;;;;;;;;;21.80;44.20;;;;;;461594;258;1261;-44
2021/05/30 04:37:08;;;;;;;;;;;21.80;44.20;;;;;;461124;258;1374;-45
2021/05/30 04:39:09;;;;;;;;;;;21.80;44.10;;;;;;461240;258;1092;-45
2021/05/30 04:41:11;;;;;;;;;;;21.80;44.10;;;;;;461035;258;1356;-45
2021/05/30 04:43:12;;;;;;;;;;;21.80;44.20;;;;;;461125;258;1171;-45
2021/05/30 04:45:13;;;;;;;;;;;21.70;44.20;;;;;;461456;258;2156;-45
2021/05/30 04:47:15;;;;;;;;;;;21.80;44.20;;;;;;461039;258;1526;-45
2021/05/30 04:49:16;;;;;;;;;;;21.80;44.10;;;;;;461130;258;1117;-44
2021/05/30 04:51:17;;;;;;;;;;;21.80;44.10;;;;;;461295;258;1322;-44
2021/05/30 04:53:18;;;;;;;;;;;21.80;44.10;;;;;;461634;258;1139;-45
2021/05/30 04:55:20;;;;;;;;;;;21.80;44.10;;;;;;461485;258;1082;-44
2021/05/30 04:57:22;;;;;;;;;;;21.80;44.10;;;;;;461491;258;1259;-45
2021/05/30 04:59:23;;;;;;;;;;;21.90;44.10;;;;;;461644;258;1061;-45
2021/05/30 05:01:24;;;;;;;;;;;21.80;44.10;;;;;;461162;258;1380;-45
2021/05/30 05:03:25;;;;;;;;;;;21.90;44.00;;;;;;461219;258;1061;-45
2021/05/30 05:05:28;;;;;;;;;;;21.90;44.00;;;;;;461406;258;2161;-45
2021/05/30 05:07:29;;;;;;;;;;;21.90;44.00;;;;;;461073;258;1126;-45
2021/05/30 05:09:30;;;;;;;;;;;21.90;44.00;;;;;;461122;258;1102;-44
2021/05/30 05:11:31;;;;;;;;;;;21.90;44.10;;;;;;461485;258;1173;-45
2021/05/30 05:13:32;;;;;;;;;;;21.90;44.10;;;;;;461444;258;1284;-45
2021/05/30 05:15:34;;;;;;;;;;;21.90;44.00;;;;;;461244;258;1159;-45
2021/05/30 05:17:35;;;;;;;;;;;21.90;44.00;;;;;;461178;258;1136;-45
2021/05/30 05:19:37;;;;;;;;;;;21.90;44.20;;;;;;461571;258;1056;-45
2021/05/30 05:21:38;;;;;;;;;;;22.00;44.00;;;;;;461303;258;1351;-45
2021/05/30 05:23:39;;;;;;;;;;;21.70;44.20;;;;;;461394;258;1071;-45
2021/05/30 05:25:40;;;;;;;;;;;21.20;45.30;;;;;;461586;258;2160;-44
2021/05/30 05:27:42;;;;;;;;;;;20.70;46.50;;;;;;461145;258;1142;-44
2021/05/30 05:29:43;;;;;;;;;;;20.30;47.50;;;;;;461336;258;1080;-44
2021/05/30 05:31:44;;;;;;;;;;;20.10;48.20;;;;;;461521;258;1383;-45
2021/05/30 05:33:46;;;;;;;;;;;19.90;48.70;;;;;;461538;258;1188;-45
2021/05/30 05:35:47;;;;;;;;;;;19.80;49.10;;;;;;461408;258;1147;-44
2021/05/30 05:37:48;;;;;;;;;;;19.70;49.30;;;;;;461121;258;1253;-44
2021/05/30 05:39:49;;;;;;;;;;;19.60;49.60;;;;;;461406;258;1078;-44
2021/05/30 05:41:52;;;;;;;;;;;19.50;49.80;;;;;;461076;258;1207;-45
2021/05/30 05:43:52;;;;;;;;;;;19.40;49.90;;;;;;461370;258;2203;-45
2021/05/30 05:45:53;;;;;;;;;;;19.40;50.00;;;;;;461459;258;2212;-44
2021/05/30 05:47:55;;;;;;;;;;;19.40;50.20;;;;;;461415;258;1126;-45
2021/05/30 05:49:56;;;;;;;;;;;19.30;50.30;;;;;;461615;258;1108;-44
2021/05/30 05:51:57;;;;;;;;;;;19.30;50.30;;;;;;461381;258;1316;-44
2021/05/30 05:53:58;;;;;;;;;;;19.20;50.50;;;;;;461438;258;1063;-44
2021/05/30 05:56:00;;;;;;;;;;;19.20;50.60;;;;;;461522;258;1092;-45
2021/05/30 05:58:01;;;;;;;;;;;19.10;50.60;;;;;;461384;258;1310;-44
2021/05/30 06:00:03;;;;;;;;;;;19.10;50.70;;;;;;461173;258;1083;-45
2021/05/30 06:02:04;;;;;;;;;;;19.10;50.80;;;;;;461064;258;1408;-44
2021/05/30 06:04:05;;;;;;;;;;;19.00;50.90;;;;;;461093;258;1062;-44
2021/05/30 06:06:06;;;;;;;;;;;19.00;50.90;;;;;;461360;258;2217;-44
2021/05/30 06:08:08;;;;;;;;;;;19.00;51.00;;;;;;461093;258;1211;-44
2021/05/30 06:10:09;;;;;;;;;;;19.00;51.10;;;;;;461553;258;1086;-44
2021/05/30 06:12:10;;;;;;;;;;;18.90;51.20;;;;;;461153;258;1327;-44
2021/05/30 06:14:11;;;;;;;;;;;18.90;51.20;;;;;;461220;258;1044;-44
2021/05/30 06:16:13;;;;;;;;;;;18.90;51.30;;;;;;461049;258;1335;-44
2021/05/30 06:18:16;;;;;;;;;;;18.80;51.30;;;;;;461583;258;1302;-44
2021/05/30 06:20:15;;;;;;;;;;;18.80;51.40;;;;;;461127;258;2256;-44
2021/05/30 06:22:17;;;;;;;;;;;18.80;51.40;;;;;;461141;258;1273;-44
2021/05/30 06:24:18;;;;;;;;;;;18.70;51.50;;;;;;461231;258;2159;-44
2021/05/30 06:26:19;;;;;;;;;;;18.70;51.60;;;;;;461355;258;2172;-44
2021/05/30 06:28:20;;;;;;;;;;;18.70;51.60;;;;;;461097;258;1114;-44
2021/05/30 06:30:22;;;;;;;;;;;18.70;51.50;;;;;;461337;258;1235;-44
2021/05/30 06:32:23;;;;;;;;;;;18.70;51.60;;;;;;461097;258;1218;-44
2021/05/30 06:34:24;;;;;;;;;;;18.70;51.60;;;;;;461484;258;1100;-45
2021/05/30 06:36:25;;;;;;;;;;;18.70;51.60;;;;;;461514;258;1129;-44
2021/05/30 06:38:27;;;;;;;;;;;18.70;51.60;;;;;;461201;258;1220;-44
2021/05/30 06:40:28;;;;;;;;;;;18.60;51.70;;;;;;461572;258;1259;-44
2021/05/30 06:42:29;;;;;;;;;;;18.60;51.70;;;;;;461128;258;1537;-44
2021/05/30 06:44:31;;;;;;;;;;;18.60;51.80;;;;;;461209;258;1036;-45
2021/05/30 06:46:32;;;;;;;;;;;18.60;51.90;;;;;;461159;258;2140;-44
2021/05/30 06:48:33;;;;;;;;;;;18.50;51.80;;;;;;461645;258;1061;-44
2021/05/30 06:50:34;;;;;;;;;;;18.50;51.80;;;;;;461381;258;1183;-44
2021/05/30 06:52:36;;;;;;;;;;;18.60;51.80;;;;;;461295;258;1219;-44
2021/05/30 06:54:37;;;;;;;;;;;18.50;51.70;;;;;;461253;258;1068;-44
2021/05/30 06:56:38;;;;;;;;;;;18.50;51.80;;;;;;461344;258;1360;-44
2021/05/30 06:58:40;;;;;;;;;;;18.50;51.80;;;;;;461115;258;1133;-44
2021/05/30 07:00:41;;;;;;;;;;;18.50;51.80;;;;;;461538;258;1326;-44
2021/05/30 07:02:42;;;;;;;;;;;18.50;51.90;;;;;;461082;258;1549;-44
2021/05/30 07:04:43;;;;;;;;;;;18.50;51.90;;;;;;461449;258;1066;-44
2021/05/30 07:06:45;;;;;;;;;;;18.40;51.90;;;;;;461090;258;2215;-44
2021/05/30 07:08:46;;;;;;;;;;;18.60;51.70;;;;;;461296;258;1201;-44
2021/05/30 07:10:47;;;;;;;;;;;19.00;50.60;;;;;;461152;258;1219;-44
2021/05/30 07:12:48;;;;;;;;;;;19.40;49.50;;;;;;461200;258;1194;-44
2021/05/30 07:14:50;;;;;;;;;;;19.70;48.60;;;;;;461374;258;1144;-44
2021/05/30 07:16:51;;;;;;;;;;;19.90;48.00;;;;;;461286;258;1339;-44
2021/05/30 07:18:52;;;;;;;;;;;20.10;47.60;;;;;;461224;258;1070;-44
2021/05/30 07:20:54;;;;;;;;;;;20.20;47.20;;;;;;461031;258;1096;-44
2021/05/30 07:22:55;;;;;;;;;;;20.30;47.00;;;;;;461452;258;1169;-44
2021/05/30 07:24:56;;;;;;;;;;;20.40;46.80;;;;;;461141;258;1095;-45
2021/05/30 07:26:57;;;;;;;;;;;20.40;46.60;;;;;;461386;258;2208;-45
2021/05/30 07:28:59;;;;;;;;;;;20.50;46.50;;;;;;461170;258;978;-45
2021/05/30 07:31:00;;;;;;;;;;;20.60;46.40;;;;;;461474;258;1190;-45
2021/05/30 07:33:02;;;;;;;;;;;20.60;46.20;;;;;;461355;258;1107;-44
2021/05/30 07:35:03;;;;;;;;;;;20.70;46.10;;;;;;461535;258;1049;-45
2021/05/30 07:37:04;;;;;;;;;;;20.70;46.00;;;;;;461466;258;1204;-45
2021/05/30 07:39:06;;;;;;;;;;;20.80;45.90;;;;;;461288;258;1161;-45
2021/05/30 07:41:07;;;;;;;;;;;20.90;45.90;;;;;;461499;258;1340;-45
2021/05/30 07:43:08;;;;;;;;;;;20.90;45.80;;;;;;461471;258;1111;-45
2021/05/30 07:45:09;;;;;;;;;;;20.90;45.70;;;;;;461399;258;1117;-45
2021/05/30 07:47:11;;;;;;;;;;;20.90;45.70;;;;;;461257;258;2224;-45
2021/05/30 07:49:12;;;;;;;;;;;20.90;45.60;;;;;;461346;258;1120;-45
2021/05/30 07:51:13;;;;;;;;;;;21.00;45.50;;;;;;461421;258;1080;-45
2021/05/30 07:53:14;;;;;;;;;;;21.00;45.40;;;;;;461529;258;1137;-45
2021/05/30 07:55:16;;;;;;;;;;;21.00;45.30;;;;;;461308;258;1079;-45
2021/05/30 07:57:17;;;;;;;;;;;21.00;45.30;;;;;;461157;258;1129;-45
2021/05/30 07:59:18;;;;;;;;;;;21.10;45.30;;;;;;461286;258;1260;-44
2021/05/30 08:01:19;;;;;;;;;;;21.10;45.20;;;;;;461224;258;1258;-45
2021/05/30 08:03:22;;;;;;;;;;;21.10;45.20;;;;;;461548;258;1059;-45
2021/05/30 08:05:22;;;;;;;;;;;21.10;45.20;;;;;;461022;258;2465;-45
2021/05/30 08:07:24;;;;;;;;;;;21.20;45.10;;;;;;461106;258;1195;-45
2021/05/30 08:09:25;;;;;;;;;;;21.20;45.10;;;;;;461222;258;1277;-44
2021/05/30 08:11:26;;;;;;;;;;;21.20;45.00;;;;;;461038;258;1305;-44
2021/05/30 08:13:27;;;;;;;;;;;21.20;45.00;;;;;;461551;258;1101;-44
2021/05/30 08:15:29;;;;;;;;;;;21.20;45.00;;;;;;461499;258;1090;-45
2021/05/30 08:17:30;;;;;;;;;;;21.20;45.00;;;;;;461404;258;1269;-45
2021/05/30 08:19:31;;;;;;;;;;;21.30;44.90;;;;;;461599;258;1127;-45
2021/05/30 08:21:33;;;;;;;;;;;21.30;45.00;;;;;;461545;258;1230;-44
2021/05/30 08:23:34;;;;;;;;;;;21.30;44.90;;;;;;461510;258;1130;-45
2021/05/30 08:25:35;;;;;;;;;;;21.30;45.00;;;;;;461551;258;2208;-45
2021/05/30 08:27:36;;;;;;;;;;;21.30;44.90;;;;;;461391;258;1322;-45
2021/05/30 08:29:38;;;;;;;;;;;21.30;44.90;;;;;;461604;258;1013;-45
2021/05/30 08:31:39;;;;;;;;;;;21.30;44.80;;;;;;461282;258;1468;-45
2021/05/30 08:33:40;;;;;;;;;;;21.40;44.80;;;;;;461481;258;970;-45
2021/05/30 08:35:42;;;;;;;;;;;21.40;44.80;;;;;;461166;258;1722;-45
2021/05/30 08:37:44;;;;;;;;;;;21.40;44.80;;;;;;461146;258;1131;-45
2021/05/30 08:39:45;;;;;;;;;;;21.40;44.80;;;;;;461037;258;1506;-45
2021/05/30 08:41:46;;;;;;;;;;;21.50;44.70;;;;;;461004;258;1400;-45
2021/05/30 08:43:47;;;;;;;;;;;21.50;44.60;;;;;;461188;258;1240;-45
2021/05/30 08:45:49;;;;;;;;;;;21.50;44.60;;;;;;461081;258;2212;-45
2021/05/30 08:47:50;;;;;;;;;;;21.50;44.60;;;;;;461133;258;1073;-44
2021/05/30 08:49:51;;;;;;;;;;;21.50;44.70;;;;;;461493;258;1060;-44
2021/05/30 08:51:53;;;;;;;;;;;21.50;44.60;;;;;;461451;258;1158;-45
2021/05/30 08:53:54;;;;;;;;;;;21.50;44.50;;;;;;461162;258;1138;-45
2021/05/30 08:55:55;;;;;;;;;;;21.60;44.50;;;;;;461123;258;1058;-45
2021/05/30 08:57:56;;;;;;;;;;;21.50;44.50;;;;;;461499;258;1102;-45
2021/05/30 08:59:58;;;;;;;;;;;21.60;44.50;;;;;;461446;258;1089;-45
2021/05/30 09:01:59;;;;;;;;;;;21.60;44.40;;;;;;461087;258;1493;-45
2021/05/30 09:04:03;;;;;;;;;;;21.60;44.40;;;;;;461275;258;1286;-45
2021/05/30 09:06:02;;;;;;;;;;;21.60;44.40;;;;;;460920;258;2164;-44
2021/05/30 09:08:03;;;;;;;;;;;21.60;44.40;;;;;;461132;258;1250;-45
2021/05/30 09:10:04;;;;;;;;;;;21.60;44.30;;;;;;461298;258;1305;-45
2021/05/30 09:12:10;;;;;;;;;;;21.70;44.30;;;;;;461099;258;1229;-45
2021/05/30 09:14:10;;;;;;;;;;;21.70;44.30;;;;;;461396;258;2082;-44
2021/05/30 09:16:10;;;;;;;;;;;21.70;44.30;;;;;;461032;258;2271;-45
2021/05/30 09:18:11;;;;;;;;;;;21.70;44.30;;;;;;461168;258;2473;-45
2021/05/30 09:20:12;;;;;;;;;;;21.70;44.30;;;;;;461340;258;1075;-45
2021/05/30 09:22:13;;;;;;;;;;;21.70;44.30;;;;;;461145;258;1198;-44
2021/05/30 09:24:14;;;;;;;;;;;21.70;44.30;;;;;;461490;258;1770;-45
2021/05/30 09:26:17;;;;;;;;;;;21.70;44.20;;;;;;461002;258;2215;-45
2021/05/30 09:28:17;;;;;;;;;;;21.70;44.20;;;;;;461008;258;1408;-45
2021/05/30 09:30:18;;;;;;;;;;;21.80;44.30;;;;;;461404;258;1111;-45
2021/05/30 09:32:20;;;;;;;;;;;21.80;44.20;;;;;;461082;258;1231;-45
2021/05/30 09:34:21;;;;;;;;;;;21.80;44.20;;;;;;461274;258;1115;-45
2021/05/30 09:36:22;;;;;;;;;;;21.80;44.20;;;;;;461340;258;1242;-45
2021/05/30 09:38:24;;;;;;;;;;;21.80;44.10;;;;;;461196;258;1123;-45
2021/05/30 09:40:25;;;;;;;;;;;21.80;44.10;;;;;;461391;258;1461;-45
2021/05/30 09:42:26;;;;;;;;;;;21.80;44.10;;;;;;461173;258;1263;-45
2021/05/30 09:44:27;;;;;;;;;;;21.80;44.20;;;;;;461446;258;1172;-45
2021/05/30 09:46:29;;;;;;;;;;;21.80;44.10;;;;;;461280;258;2224;-45
2021/05/30 09:48:30;;;;;;;;;;;21.80;44.10;;;;;;461568;258;1358;-45
2021/05/30 09:50:33;;;;;;;;;;;21.80;44.10;;;;;;461204;258;1066;-45
2021/05/30 09:52:34;;;;;;;;;;;21.80;44.10;;;;;;461467;258;1212;-45
2021/05/30 09:54:35;;;;;;;;;;;21.80;44.10;;;;;;461101;258;1127;-44
2021/05/30 09:56:36;;;;;;;;;;;21.80;44.10;;;;;;461063;258;1220;-45
2021/05/30 09:58:39;;;;;;;;;;;21.80;44.10;;;;;;461131;258;1119;-45
2021/05/30 10:00:39;;;;;;;;;;;21.90;44.10;;;;;;461239;258;1461;-45
2021/05/30 10:02:40;;;;;;;;;;;21.90;44.10;;;;;;461554;258;1075;-44
2021/05/30 10:04:42;;;;;;;;;;;21.90;44.10;;;;;;461619;258;1076;-45
2021/05/30 10:06:43;;;;;;;;;;;21.90;44.00;;;;;;461327;258;2235;-45
2021/05/30 10:08:44;;;;;;;;;;;21.50;44.80;;;;;;461476;258;1074;-45
2021/05/30 10:10:45;;;;;;;;;;;20.90;46.00;;;;;;461169;258;1271;-45
2021/05/30 10:12:47;;;;;;;;;;;20.50;47.20;;;;;;461433;258;1050;-44
2021/05/30 10:14:49;;;;;;;;;;;20.20;47.80;;;;;;461151;258;1093;-44
2021/05/30 10:16:49;;;;;;;;;;;20.00;48.50;;;;;;461124;258;1547;-45
2021/05/30 10:18:51;;;;;;;;;;;19.80;48.90;;;;;;461225;258;1127;-44
2021/05/30 10:20:52;;;;;;;;;;;19.70;49.30;;;;;;461383;258;1553;-44
2021/05/30 10:22:53;;;;;;;;;;;19.60;49.50;;;;;;461033;258;1206;-44
2021/05/30 10:24:55;;;;;;;;;;;19.50;49.70;;;;;;461171;258;1137;-44
2021/05/30 10:26:56;;;;;;;;;;;19.40;50.00;;;;;;460989;258;2766;-44
2021/05/30 10:28:58;;;;;;;;;;;19.40;50.10;;;;;;461258;258;1188;-44
2021/05/30 10:31:00;;;;;;;;;;;19.30;50.20;;;;;;461490;258;1241;-44
2021/05/30 10:33:01;;;;;;;;;;;19.30;50.30;;;;;;461120;258;1173;-45
2021/05/30 10:35:02;;;;;;;;;;;19.20;50.40;;;;;;461540;258;1092;-44
2021/05/30 10:37:03;;;;;;;;;;;19.20;50.60;;;;;;461442;258;1276;-44
2021/05/30 10:39:05;;;;;;;;;;;19.10;50.60;;;;;;461198;258;1086;-44
2021/05/30 10:41:06;;;;;;;;;;;19.20;50.70;;;;;;461389;258;1277;-44
2021/05/30 10:43:07;;;;;;;;;;;19.10;50.70;;;;;;461489;258;1057;-45
2021/05/30 10:45:09;;;;;;;;;;;19.00;50.80;;;;;;461122;258;1110;-45
2021/05/30 10:47:10;;;;;;;;;;;19.00;50.90;;;;;;461253;258;2153;-44
2021/05/30 10:49:11;;;;;;;;;;;19.00;50.90;;;;;;461537;258;1118;-44
2021/05/30 10:53:46;;;;;;;;;;;19.00;51.10;;;;;;453371;258;1319;-45
2021/05/30 10:55:46;;;;;;;;;;;18.90;51.00;;;;;;461134;258;1261;-44
2021/05/30 10:57:48;;;;;;;;;;;18.90;51.20;;;;;;461164;258;1217;-45
2021/05/30 10:59:49;;;;;;;;;;;18.80;51.20;;;;;;461206;258;1207;-44
2021/05/30 11:01:51;;;;;;;;;;;18.80;51.40;;;;;;461543;258;1177;-45
2021/05/30 11:03:52;;;;;;;;;;;18.80;51.40;;;;;;461253;258;2319;-44
2021/05/30 11:05:54;;;;;;;;;;;18.80;51.40;;;;;;461191;258;1069;-44
2021/05/30 11:07:55;;;;;;;;;;;18.70;51.50;;;;;;461431;258;2175;-44
2021/05/30 11:09:58;;;;;;;;;;;18.70;51.50;;;;;;461083;258;1095;-44
2021/05/30 11:11:57;;;;;;;;;;;18.70;51.50;;;;;;461167;258;2255;-44
2021/05/30 11:13:59;;;;;;;;;;;18.70;51.50;;;;;;461319;258;1073;-45
2021/05/30 11:16:00;;;;;;;;;;;18.70;51.60;;;;;;461495;258;1181;-44
2021/05/30 11:18:01;;;;;;;;;;;18.70;51.60;;;;;;461481;258;1623;-44
2021/05/30 11:20:03;;;;;;;;;;;18.60;51.60;;;;;;461401;258;1095;-44
2021/05/30 11:22:04;;;;;;;;;;;18.60;51.60;;;;;;461445;258;1190;-44
2021/05/30 11:24:05;;;;;;;;;;;18.60;51.60;;;;;;461632;258;1108;-44
2021/05/30 11:26:07;;;;;;;;;;;18.60;51.70;;;;;;461177;258;1345;-44
2021/05/30 11:28:08;;;;;;;;;;;18.60;51.70;;;;;;461110;258;2188;-44
2021/05/30 11:30:09;;;;;;;;;;;18.50;51.70;;;;;;461386;258;1263;-44
2021/05/30 11:32:10;;;;;;;;;;;18.50;51.70;;;;;;461345;258;1332;-44
2021/05/30 11:34:12;;;;;;;;;;;18.50;51.90;;;;;;461165;258;1060;-44
2021/05/30 11:36:13;;;;;;;;;;;18.50;51.90;;;;;;461086;258;1330;-44
2021/05/30 11:38:14;;;;;;;;;;;18.50;51.80;;;;;;461514;258;1220;-44
2021/05/30 11:40:15;;;;;;;;;;;18.50;51.90;;;;;;461500;258;1093;-44
2021/05/30 11:42:17;;;;;;;;;;;18.50;51.80;;;;;;461215;258;1193;-44
2021/05/30 11:44:18;;;;;;;;;;;18.50;51.80;;;;;;461043;258;1194;-44
2021/05/30 11:46:19;;;;;;;;;;;18.70;51.40;;;;;;461042;258;1348;-44
2021/05/30 11:48:20;;;;;;;;;;;19.10;50.20;;;;;;461552;258;2211;-45
2021/05/30 11:50:22;;;;;;;;;;;19.50;49.10;;;;;;461544;258;1336;-44
2021/05/30 11:52:23;;;;;;;;;;;19.80;48.40;;;;;;461505;258;1294;-45
2021/05/30 11:54:24;;;;;;;;;;;20.00;47.90;;;;;;461599;258;1155;-45
2021/05/30 11:56:26;;;;;;;;;;;20.10;47.40;;;;;;461296;258;1390;-45
2021/05/30 11:58:27;;;;;;;;;;;20.30;47.20;;;;;;461230;258;1186;-44